sensor_id;sensor_type;location;lat;lon;timestamp;pressure;altitude;pressure_sealevel;temperature;humidity
63808;BME280;49961;43.970;22.868;2022-09-09T00:00:25;101338.50;;;20.12;100.00
63808;BME280;49961;43.970;22.868;2022-09-09T00:03:17;101340.84;;;20.14;100.00
63808;BME280;49961;43.970;22.868;2022-09-09T00:05:30;101333.53;;;20.07;100.00
63808;BME280;49961;43.970;22.868;2022-09-09T00:06:45;101329.94;;;20.07;100.00
63808;BME280;49961;43.970;22.868;2022-09-09T00:07:49;101339.16;;;20.07;100.00
63808;BME280;49961;43.970;22.868;2022-09-09T00:09:00;101335.56;;;20.07;100.00
63808;BME280;49961;43.970;22.868;2022-09-09T00:10:16;101335.56;;;20.07;100.00
63808;BME280;49961;43.970;22.868;2022-09-09T00:11:27;101282.25;;;19.65;100.00
63808;BME280;49961;43.970;22.868;2022-09-09T00:13:46;101344.78;;;20.07;100.00
63808;BME280;49961;43.970;22.868;2022-09-09T00:14:56;101337.25;;;19.90;100.00
63808;BME280;49961;43.970;22.868;2022-09-09T00:16:19;101350.88;;;20.06;100.00
63808;BME280;49961;43.970;22.868;2022-09-09T00:20:22;101348.41;;;19.99;100.00
63808;BME280;49961;43.970;22.868;2022-09-09T00:21:37;101348.00;;;19.91;100.00
63808;BME280;49961;43.970;22.868;2022-09-09T00:22:44;101357.88;;;19.87;100.00
63808;BME280;49961;43.970;22.868;2022-09-09T00:23:54;101354.78;;;19.85;100.00
63808;BME280;49961;43.970;22.868;2022-09-09T00:25:02;101362.16;;;19.82;100.00
63808;BME280;49961;43.970;22.868;2022-09-09T00:27:21;101355.50;;;19.71;100.00
63808;BME280;49961;43.970;22.868;2022-09-09T00:28:26;101346.44;;;19.67;100.00
63808;BME280;49961;43.970;22.868;2022-09-09T00:29:43;101342.91;;;19.57;100.00
63808;BME280;49961;43.970;22.868;2022-09-09T00:30:46;101348.66;;;19.63;100.00
63808;BME280;49961;43.970;22.868;2022-09-09T00:31:49;101353.97;;;19.61;100.00
63808;BME280;49961;43.970;22.868;2022-09-09T00:33:00;101353.19;;;19.60;100.00
63808;BME280;49961;43.970;22.868;2022-09-09T00:34:14;101355.25;;;19.60;100.00
63808;BME280;49961;43.970;22.868;2022-09-09T00:35:30;101360.41;;;19.61;100.00
63808;BME280;49961;43.970;22.868;2022-09-09T00:36:33;101358.06;;;19.60;100.00
63808;BME280;49961;43.970;22.868;2022-09-09T00:37:37;101357.25;;;19.59;100.00
63808;BME280;49961;43.970;22.868;2022-09-09T00:38:51;101359.59;;;19.61;100.00
63808;BME280;49961;43.970;22.868;2022-09-09T00:39:55;101363.97;;;19.62;100.00
63808;BME280;49961;43.970;22.868;2022-09-09T00:41:49;101364.75;;;19.62;100.00
63808;BME280;49961;43.970;22.868;2022-09-09T00:42:47;101363.78;;;19.65;100.00
63808;BME280;49961;43.970;22.868;2022-09-09T00:44:00;101345.25;;;19.59;100.00
63808;BME280;49961;43.970;22.868;2022-09-09T00:45:37;101368.00;;;19.70;100.00
63808;BME280;49961;43.970;22.868;2022-09-09T00:47:38;101361.44;;;19.64;100.00
63808;BME280;49961;43.970;22.868;2022-09-09T00:48:48;101358.34;;;19.62;100.00
63808;BME280;49961;43.970;22.868;2022-09-09T00:51:13;101364.31;;;19.55;100.00
63808;BME280;49961;43.970;22.868;2022-09-09T00:55:07;101356.31;;;19.62;100.00
63808;BME280;49961;43.970;22.868;2022-09-09T00:56:14;101365.84;;;19.65;100.00
63808;BME280;49961;43.970;22.868;2022-09-09T00:57:30;101234.47;;;18.77;100.00
63808;BME280;49961;43.970;22.868;2022-09-09T00:58:31;101224.97;;;18.74;100.00
63808;BME280;49961;43.970;22.868;2022-09-09T00:59:48;101363.13;;;19.70;100.00
63808;BME280;49961;43.970;22.868;2022-09-09T01:01:53;101296.50;;;19.29;100.00
63808;BME280;49961;43.970;22.868;2022-09-09T01:04:24;101357.66;;;19.76;100.00
63808;BME280;49961;43.970;22.868;2022-09-09T01:06:11;101359.19;;;19.77;100.00
63808;BME280;49961;43.970;22.868;2022-09-09T01:07:16;101361.53;;;19.78;100.00
63808;BME280;49961;43.970;22.868;2022-09-09T01:09:58;101366.38;;;19.78;100.00
63808;BME280;49961;43.970;22.868;2022-09-09T01:11:00;101356.84;;;19.75;100.00
63808;BME280;49961;43.970;22.868;2022-09-09T01:12:16;101370.25;;;19.80;100.00
63808;BME280;49961;43.970;22.868;2022-09-09T01:13:29;101366.69;;;19.80;100.00
63808;BME280;49961;43.970;22.868;2022-09-09T01:15:34;101243.06;;;19.06;100.00
63808;BME280;49961;43.970;22.868;2022-09-09T01:16:36;101369.78;;;19.82;100.00
63808;BME280;49961;43.970;22.868;2022-09-09T01:18:48;101362.63;;;19.81;100.00
63808;BME280;49961;43.970;22.868;2022-09-09T01:19:58;101364.63;;;19.80;100.00
63808;BME280;49961;43.970;22.868;2022-09-09T01:21:09;101361.81;;;19.80;100.00
63808;BME280;49961;43.970;22.868;2022-09-09T01:26:52;101344.06;;;19.74;100.00
63808;BME280;49961;43.970;22.868;2022-09-09T01:27:58;101354.78;;;19.85;100.00
63808;BME280;49961;43.970;22.868;2022-09-09T01:29:00;101341.25;;;19.74;100.00
63808;BME280;49961;43.970;22.868;2022-09-09T01:30:04;101366.31;;;19.87;100.00
63808;BME280;49961;43.970;22.868;2022-09-09T01:31:06;101360.22;;;19.88;100.00
63808;BME280;49961;43.970;22.868;2022-09-09T01:32:38;101360.50;;;19.90;100.00
63808;BME280;49961;43.970;22.868;2022-09-09T01:33:40;101359.25;;;19.91;100.00
63808;BME280;49961;43.970;22.868;2022-09-09T01:34:40;101358.19;;;19.89;100.00
63808;BME280;49961;43.970;22.868;2022-09-09T01:36:21;101355.69;;;19.91;100.00
63808;BME280;49961;43.970;22.868;2022-09-09T01:37:24;101354.28;;;19.86;100.00
63808;BME280;49961;43.970;22.868;2022-09-09T01:38:24;101348.09;;;19.82;100.00
63808;BME280;49961;43.970;22.868;2022-09-09T01:39:26;101334.41;;;19.66;100.00
63808;BME280;49961;43.970;22.868;2022-09-09T01:40:26;101361.66;;;19.84;100.00
63808;BME280;49961;43.970;22.868;2022-09-09T01:41:27;101301.59;;;19.49;100.00
63808;BME280;49961;43.970;22.868;2022-09-09T01:42:28;101359.34;;;19.82;100.00
63808;BME280;49961;43.970;22.868;2022-09-09T01:43:28;101319.34;;;19.55;100.00
63808;BME280;49961;43.970;22.868;2022-09-09T01:44:29;101358.97;;;19.89;100.00
63808;BME280;49961;43.970;22.868;2022-09-09T01:45:31;101357.72;;;19.90;100.00
63808;BME280;49961;43.970;22.868;2022-09-09T01:46:31;101356.75;;;19.93;100.00
63808;BME280;49961;43.970;22.868;2022-09-09T01:47:32;101343.53;;;19.85;100.00
63808;BME280;49961;43.970;22.868;2022-09-09T01:48:33;101363.16;;;19.94;100.00
63808;BME280;49961;43.970;22.868;2022-09-09T01:49:33;101366.75;;;19.94;100.00
63808;BME280;49961;43.970;22.868;2022-09-09T01:50:34;101371.91;;;19.96;100.00
63808;BME280;49961;43.970;22.868;2022-09-09T01:51:36;101280.88;;;19.37;100.00
63808;BME280;49961;43.970;22.868;2022-09-09T01:52:38;101365.00;;;19.97;100.00
63808;BME280;49961;43.970;22.868;2022-09-09T01:53:40;101365.81;;;19.97;100.00
63808;BME280;49961;43.970;22.868;2022-09-09T01:54:41;101366.47;;;19.92;100.00
63808;BME280;49961;43.970;22.868;2022-09-09T02:00:09;101371.75;;;19.90;100.00
63808;BME280;49961;43.970;22.868;2022-09-09T02:02:03;101377.09;;;19.88;100.00
63808;BME280;49961;43.970;22.868;2022-09-09T02:02:42;101277.03;;;19.26;100.00
63808;BME280;49961;43.970;22.868;2022-09-09T02:03:52;101370.22;;;19.89;100.00
63808;BME280;49961;43.970;22.868;2022-09-09T02:05:05;101377.59;;;19.87;100.00
63808;BME280;49961;43.970;22.868;2022-09-09T02:06:32;101383.50;;;19.89;100.00
63808;BME280;49961;43.970;22.868;2022-09-09T02:09:00;101259.59;;;19.13;100.00
63808;BME280;49961;43.970;22.868;2022-09-09T02:10:17;101385.84;;;19.90;100.00
63808;BME280;49961;43.970;22.868;2022-09-09T02:11:22;101383.03;;;19.90;100.00
63808;BME280;49961;43.970;22.868;2022-09-09T02:12:24;101384.28;;;19.89;100.00
63808;BME280;49961;43.970;22.868;2022-09-09T02:13:26;101385.06;;;19.90;100.00
63808;BME280;49961;43.970;22.868;2022-09-09T02:14:32;101382.72;;;19.88;100.00
63808;BME280;49961;43.970;22.868;2022-09-09T02:15:40;101386.03;;;19.87;100.00
63808;BME280;49961;43.970;22.868;2022-09-09T02:16:59;101379.59;;;19.86;100.00
63808;BME280;49961;43.970;22.868;2022-09-09T02:18:05;101250.41;;;19.03;100.00
63808;BME280;49961;43.970;22.868;2022-09-09T02:19:19;101380.38;;;19.87;100.00
63808;BME280;49961;43.970;22.868;2022-09-09T02:20:26;101378.53;;;19.84;100.00
63808;BME280;49961;43.970;22.868;2022-09-09T02:21:29;101379.31;;;19.84;100.00
63808;BME280;49961;43.970;22.868;2022-09-09T02:22:32;101345.53;;;19.61;100.00
63808;BME280;49961;43.970;22.868;2022-09-09T02:23:35;101375.13;;;19.80;100.00
63808;BME280;49961;43.970;22.868;2022-09-09T02:24:39;101372.59;;;19.82;100.00
63808;BME280;49961;43.970;22.868;2022-09-09T02:25:40;101358.41;;;19.76;100.00
63808;BME280;49961;43.970;22.868;2022-09-09T02:26:44;101369.00;;;19.81;100.00
63808;BME280;49961;43.970;22.868;2022-09-09T02:27:47;101366.19;;;19.81;100.00
63808;BME280;49961;43.970;22.868;2022-09-09T02:28:51;101367.78;;;19.82;100.00
63808;BME280;49961;43.970;22.868;2022-09-09T02:29:55;101293.53;;;19.33;100.00
63808;BME280;49961;43.970;22.868;2022-09-09T02:30:58;101374.94;;;19.83;100.00
63808;BME280;49961;43.970;22.868;2022-09-09T02:32:03;101365.63;;;19.77;100.00
63808;BME280;49961;43.970;22.868;2022-09-09T02:33:07;101379.31;;;19.84;100.00
63808;BME280;49961;43.970;22.868;2022-09-09T02:34:11;101312.53;;;19.38;100.00
63808;BME280;49961;43.970;22.868;2022-09-09T02:35:15;101382.91;;;19.85;100.00
63808;BME280;49961;43.970;22.868;2022-09-09T02:36:18;101323.75;;;19.47;100.00
63808;BME280;49961;43.970;22.868;2022-09-09T02:37:22;101306.34;;;19.34;100.00
63808;BME280;49961;43.970;22.868;2022-09-09T02:38:28;101387.75;;;19.84;100.00
63808;BME280;49961;43.970;22.868;2022-09-09T02:39:30;101388.53;;;19.85;100.00
63808;BME280;49961;43.970;22.868;2022-09-09T02:40:31;101380.88;;;19.85;100.00
63808;BME280;49961;43.970;22.868;2022-09-09T02:41:34;101376.78;;;19.86;100.00
63808;BME280;49961;43.970;22.868;2022-09-09T02:42:39;101367.59;;;19.86;100.00
63808;BME280;49961;43.970;22.868;2022-09-09T02:43:40;101371.66;;;19.85;100.00
63808;BME280;49961;43.970;22.868;2022-09-09T02:44:41;101374.16;;;19.83;100.00
63808;BME280;49961;43.970;22.868;2022-09-09T02:45:53;101375.59;;;19.78;100.00
63808;BME280;49961;43.970;22.868;2022-09-09T02:48:29;101280.91;;;19.19;100.00
63808;BME280;49961;43.970;22.868;2022-09-09T02:52:07;101380.16;;;19.76;100.00
63808;BME280;49961;43.970;22.868;2022-09-09T02:53:19;101384.97;;;19.75;100.00
63808;BME280;49961;43.970;22.868;2022-09-09T02:54:28;101385.78;;;19.76;100.00
63808;BME280;49961;43.970;22.868;2022-09-09T02:55:39;101288.78;;;19.15;100.00
63808;BME280;49961;43.970;22.868;2022-09-09T02:56:48;101383.44;;;19.74;100.00
63808;BME280;49961;43.970;22.868;2022-09-09T02:57:51;101235.38;;;18.83;100.00
63808;BME280;49961;43.970;22.868;2022-09-09T02:58:52;101358.63;;;19.64;100.00
63808;BME280;49961;43.970;22.868;2022-09-09T02:59:57;101383.72;;;19.76;100.00
63808;BME280;49961;43.970;22.868;2022-09-09T03:00:58;101377.16;;;19.79;100.00
63808;BME280;49961;43.970;22.868;2022-09-09T03:02:01;101372.03;;;19.69;100.00
63808;BME280;49961;43.970;22.868;2022-09-09T03:03:07;101381.22;;;19.78;100.00
63808;BME280;49961;43.970;22.868;2022-09-09T03:04:09;101368.56;;;19.74;100.00
63808;BME280;49961;43.970;22.868;2022-09-09T03:05:09;101383.56;;;19.80;100.00
63808;BME280;49961;43.970;22.868;2022-09-09T03:06:10;101361.88;;;19.71;100.00
63808;BME280;49961;43.970;22.868;2022-09-09T03:07:12;101377.94;;;19.80;100.00
63808;BME280;49961;43.970;22.868;2022-09-09T03:08:12;101384.81;;;19.79;100.00
63808;BME280;49961;43.970;22.868;2022-09-09T03:09:13;101284.84;;;19.22;100.00
63808;BME280;49961;43.970;22.868;2022-09-09T03:10:13;101378.72;;;19.80;100.00
63808;BME280;49961;43.970;22.868;2022-09-09T03:11:14;101365.47;;;19.72;100.00
63808;BME280;49961;43.970;22.868;2022-09-09T03:12:14;101385.41;;;19.83;100.00
63808;BME280;49961;43.970;22.868;2022-09-09T03:13:15;101379.78;;;19.83;100.00
63808;BME280;49961;43.970;22.868;2022-09-09T03:14:15;101379.03;;;19.82;100.00
63808;BME280;49961;43.970;22.868;2022-09-09T03:15:16;101382.59;;;19.83;100.00
63808;BME280;49961;43.970;22.868;2022-09-09T03:16:17;101380.56;;;19.83;100.00
63808;BME280;49961;43.970;22.868;2022-09-09T03:17:18;101380.44;;;19.78;100.00
63808;BME280;49961;43.970;22.868;2022-09-09T03:18:18;101378.88;;;19.77;100.00
63808;BME280;49961;43.970;22.868;2022-09-09T03:19:20;101379.34;;;19.75;100.00
63808;BME280;49961;43.970;22.868;2022-09-09T03:20:20;101332.66;;;19.45;100.00
63808;BME280;49961;43.970;22.868;2022-09-09T03:21:21;101321.78;;;19.38;100.00
63808;BME280;49961;43.970;22.868;2022-09-09T03:22:22;101383.72;;;19.76;100.00
63808;BME280;49961;43.970;22.868;2022-09-09T03:23:22;101378.09;;;19.76;100.00
63808;BME280;49961;43.970;22.868;2022-09-09T03:24:23;101386.84;;;19.78;100.00
63808;BME280;49961;43.970;22.868;2022-09-09T03:25:24;101390.94;;;19.77;100.00
63808;BME280;49961;43.970;22.868;2022-09-09T03:26:24;101400.59;;;19.76;100.00
63808;BME280;49961;43.970;22.868;2022-09-09T03:27:25;101332.88;;;19.33;100.00
63808;BME280;49961;43.970;22.868;2022-09-09T03:28:26;101345.47;;;19.46;100.00
63808;BME280;49961;43.970;22.868;2022-09-09T03:29:31;101384.38;;;19.71;100.00
63808;BME280;49961;43.970;22.868;2022-09-09T03:30:31;101354.84;;;19.43;100.00
63808;BME280;49961;43.970;22.868;2022-09-09T03:31:33;101387.09;;;19.57;100.00
63808;BME280;49961;43.970;22.868;2022-09-09T03:32:34;101397.41;;;19.60;100.00
63808;BME280;49961;43.970;22.868;2022-09-09T03:33:34;101341.66;;;19.26;100.00
63808;BME280;49961;43.970;22.868;2022-09-09T03:34:36;101382.59;;;19.50;100.00
63808;BME280;49961;43.970;22.868;2022-09-09T03:35:45;101399.66;;;19.47;100.00
63808;BME280;49961;43.970;22.868;2022-09-09T03:36:48;101381.06;;;19.49;100.00
63808;BME280;49961;43.970;22.868;2022-09-09T03:37:49;101376.22;;;19.50;100.00
63808;BME280;49961;43.970;22.868;2022-09-09T03:38:49;101371.34;;;19.50;100.00
63808;BME280;49961;43.970;22.868;2022-09-09T03:39:51;101336.31;;;19.28;100.00
63808;BME280;49961;43.970;22.868;2022-09-09T03:40:52;101390.28;;;19.50;100.00
63808;BME280;49961;43.970;22.868;2022-09-09T03:41:58;101383.88;;;19.49;100.00
63808;BME280;49961;43.970;22.868;2022-09-09T03:42:59;101376.69;;;19.48;100.00
63808;BME280;49961;43.970;22.868;2022-09-09T03:43:59;101373.88;;;19.48;100.00
63808;BME280;49961;43.970;22.868;2022-09-09T03:45:00;101380.28;;;19.49;100.00
63808;BME280;49961;43.970;22.868;2022-09-09T03:46:01;101380.75;;;19.47;100.00
63808;BME280;49961;43.970;22.868;2022-09-09T03:47:01;101389.19;;;19.47;100.00
63808;BME280;49961;43.970;22.868;2022-09-09T03:48:02;101348.06;;;19.17;100.00
63808;BME280;49961;43.970;22.868;2022-09-09T03:49:02;101337.47;;;19.12;100.00
63808;BME280;49961;43.970;22.868;2022-09-09T03:50:04;101360.72;;;19.22;100.00
63808;BME280;49961;43.970;22.868;2022-09-09T03:51:08;101385.59;;;19.47;100.00
63808;BME280;49961;43.970;22.868;2022-09-09T03:52:09;101385.59;;;19.47;100.00
63808;BME280;49961;43.970;22.868;2022-09-09T03:53:09;101379.97;;;19.47;100.00
63808;BME280;49961;43.970;22.868;2022-09-09T03:54:10;101383.09;;;19.49;100.00
63808;BME280;49961;43.970;22.868;2022-09-09T03:55:10;101389.50;;;19.49;100.00
63808;BME280;49961;43.970;22.868;2022-09-09T03:56:11;101385.41;;;19.50;100.00
63808;BME280;49961;43.970;22.868;2022-09-09T03:57:11;101365.66;;;19.36;100.00
63808;BME280;49961;43.970;22.868;2022-09-09T03:58:16;101390.09;;;19.53;100.00
63808;BME280;49961;43.970;22.868;2022-09-09T03:59:18;101395.72;;;19.53;100.00
63808;BME280;49961;43.970;22.868;2022-09-09T04:00:20;101265.50;;;18.73;100.00
63808;BME280;49961;43.970;22.868;2022-09-09T04:01:21;101342.91;;;19.25;100.00
63808;BME280;49961;43.970;22.868;2022-09-09T04:02:21;101386.50;;;19.53;100.00
63808;BME280;49961;43.970;22.868;2022-09-09T04:03:23;101391.03;;;19.50;100.00
63808;BME280;49961;43.970;22.868;2022-09-09T04:04:25;101396.66;;;19.50;100.00
63808;BME280;49961;43.970;22.868;2022-09-09T04:05:26;101398.72;;;19.50;100.00
63808;BME280;49961;43.970;22.868;2022-09-09T04:06:27;101401.53;;;19.50;100.00
63808;BME280;49961;43.970;22.868;2022-09-09T04:07:28;101410.72;;;19.50;100.00
63808;BME280;49961;43.970;22.868;2022-09-09T04:08:29;101267.75;;;18.51;100.00
63808;BME280;49961;43.970;22.868;2022-09-09T04:09:33;101413.72;;;19.47;100.00
63808;BME280;49961;43.970;22.868;2022-09-09T04:10:35;101413.72;;;19.47;100.00
63808;BME280;49961;43.970;22.868;2022-09-09T04:11:38;101411.41;;;19.36;100.00
63808;BME280;49961;43.970;22.868;2022-09-09T04:12:39;101356.22;;;19.06;100.00
63808;BME280;49961;43.970;22.868;2022-09-09T04:13:39;101420.75;;;19.42;100.00
63808;BME280;49961;43.970;22.868;2022-09-09T04:14:40;101422.50;;;19.40;100.00
63808;BME280;49961;43.970;22.868;2022-09-09T04:15:40;101301.25;;;18.64;100.00
63808;BME280;49961;43.970;22.868;2022-09-09T04:16:41;101419.34;;;19.38;100.00
63808;BME280;49961;43.970;22.868;2022-09-09T04:17:44;101424.22;;;19.37;100.00
63808;BME280;49961;43.970;22.868;2022-09-09T04:18:45;101434.03;;;19.33;100.00
63808;BME280;49961;43.970;22.868;2022-09-09T04:19:46;101419.22;;;19.32;100.00
63808;BME280;49961;43.970;22.868;2022-09-09T04:20:50;101414.09;;;19.22;100.00
63808;BME280;49961;43.970;22.868;2022-09-09T04:21:51;101432.31;;;19.35;100.00
63808;BME280;49961;43.970;22.868;2022-09-09T04:22:52;101429.38;;;19.39;100.00
63808;BME280;49961;43.970;22.868;2022-09-09T04:23:52;101425.28;;;19.40;100.00
63808;BME280;49961;43.970;22.868;2022-09-09T04:24:53;101407.81;;;19.36;100.00
63808;BME280;49961;43.970;22.868;2022-09-09T04:25:54;101424.84;;;19.41;100.00
63808;BME280;49961;43.970;22.868;2022-09-09T04:26:55;101414.34;;;19.42;100.00
63808;BME280;49961;43.970;22.868;2022-09-09T04:27:57;101429.50;;;19.44;100.00
63808;BME280;49961;43.970;22.868;2022-09-09T04:28:58;101420.94;;;19.39;100.00
63808;BME280;49961;43.970;22.868;2022-09-09T04:29:58;101393.78;;;19.27;100.00
63808;BME280;49961;43.970;22.868;2022-09-09T04:31:07;101349.72;;;18.91;100.00
63808;BME280;49961;43.970;22.868;2022-09-09T04:32:09;101381.63;;;19.12;100.00
63808;BME280;49961;43.970;22.868;2022-09-09T04:33:10;101433.72;;;19.49;100.00
63808;BME280;49961;43.970;22.868;2022-09-09T04:34:10;101369.47;;;19.15;100.00
63808;BME280;49961;43.970;22.868;2022-09-09T04:35:11;101415.44;;;19.44;100.00
63808;BME280;49961;43.970;22.868;2022-09-09T04:36:12;101379.91;;;19.23;100.00
63808;BME280;49961;43.970;22.868;2022-09-09T04:37:13;101412.88;;;19.55;100.00
63808;BME280;49961;43.970;22.868;2022-09-09T04:38:14;101416.03;;;19.57;100.00
63808;BME280;49961;43.970;22.868;2022-09-09T04:39:15;101391.34;;;19.52;100.00
63808;BME280;49961;43.970;22.868;2022-09-09T04:40:15;101415.66;;;19.64;100.00
63808;BME280;49961;43.970;22.868;2022-09-09T04:41:16;101393.69;;;19.54;100.00
63808;BME280;49961;43.970;22.868;2022-09-09T04:42:16;101409.56;;;19.66;100.00
63808;BME280;49961;43.970;22.868;2022-09-09T04:43:19;101407.38;;;19.70;100.00
63808;BME280;49961;43.970;22.868;2022-09-09T04:44:21;101408.44;;;19.72;100.00
63808;BME280;49961;43.970;22.868;2022-09-09T04:45:21;101406.72;;;19.75;100.00
63808;BME280;49961;43.970;22.868;2022-09-09T04:46:22;101419.34;;;19.79;100.00
63808;BME280;49961;43.970;22.868;2022-09-09T04:47:23;101413.84;;;19.85;100.00
63808;BME280;49961;43.970;22.868;2022-09-09T04:48:23;101410.06;;;19.88;100.00
63808;BME280;49961;43.970;22.868;2022-09-09T04:49:25;101412.22;;;19.93;100.00
63808;BME280;49961;43.970;22.868;2022-09-09T04:50:26;101409.41;;;19.93;100.00
63808;BME280;49961;43.970;22.868;2022-09-09T04:51:26;101413.44;;;20.01;100.00
63808;BME280;49961;43.970;22.868;2022-09-09T04:52:27;101397.97;;;19.96;100.00
63808;BME280;49961;43.970;22.868;2022-09-09T04:53:28;101402.19;;;20.01;100.00
63808;BME280;49961;43.970;22.868;2022-09-09T04:54:29;101399.47;;;20.06;100.00
63808;BME280;49961;43.970;22.868;2022-09-09T04:55:29;101413.34;;;20.19;100.00
63808;BME280;49961;43.970;22.868;2022-09-09T04:56:30;101411.94;;;20.23;100.00
63808;BME280;49961;43.970;22.868;2022-09-09T04:57:31;101403.47;;;20.23;100.00
63808;BME280;49961;43.970;22.868;2022-09-09T04:58:32;101414.19;;;20.34;100.00
63808;BME280;49961;43.970;22.868;2022-09-09T04:59:33;101404.78;;;20.37;100.00
63808;BME280;49961;43.970;22.868;2022-09-09T05:00:37;101411.78;;;20.41;100.00
63808;BME280;49961;43.970;22.868;2022-09-09T05:01:37;101412.38;;;20.45;100.00
63808;BME280;49961;43.970;22.868;2022-09-09T05:02:39;101410.91;;;20.50;100.00
63808;BME280;49961;43.970;22.868;2022-09-09T05:03:39;101418.69;;;20.55;100.00
63808;BME280;49961;43.970;22.868;2022-09-09T05:04:40;101422.13;;;20.59;100.00
63808;BME280;49961;43.970;22.868;2022-09-09T05:05:40;101424.25;;;20.64;100.00
63808;BME280;49961;43.970;22.868;2022-09-09T05:06:41;101431.75;;;20.67;100.00
63808;BME280;49961;43.970;22.868;2022-09-09T05:07:42;101427.88;;;20.64;100.00
63808;BME280;49961;43.970;22.868;2022-09-09T05:08:44;101430.69;;;20.64;100.00
63808;BME280;49961;43.970;22.868;2022-09-09T05:09:44;101425.81;;;20.65;100.00
63808;BME280;49961;43.970;22.868;2022-09-09T05:10:45;101423.47;;;20.63;100.00
63808;BME280;49961;43.970;22.868;2022-09-09T05:11:46;101429.09;;;20.63;100.00
63808;BME280;49961;43.970;22.868;2022-09-09T05:12:53;101427.88;;;20.64;100.00
63808;BME280;49961;43.970;22.868;2022-09-09T05:13:54;101372.63;;;20.29;100.00
63808;BME280;49961;43.970;22.868;2022-09-09T05:14:56;101427.47;;;20.71;100.00
63808;BME280;49961;43.970;22.868;2022-09-09T05:15:56;101427.69;;;20.68;100.00
63808;BME280;49961;43.970;22.868;2022-09-09T05:16:57;101376.31;;;20.35;100.00
63808;BME280;49961;43.970;22.868;2022-09-09T05:17:59;101434.47;;;20.76;100.00
63808;BME280;49961;43.970;22.868;2022-09-09T05:19:00;101421.06;;;20.71;100.00
63808;BME280;49961;43.970;22.868;2022-09-09T05:20:02;101319.16;;;20.05;100.00
63808;BME280;49961;43.970;22.868;2022-09-09T05:21:04;101425.06;;;20.79;100.00
63808;BME280;49961;43.970;22.868;2022-09-09T05:22:05;101430.59;;;20.73;100.00
63808;BME280;49961;43.970;22.868;2022-09-09T05:23:05;101426.22;;;20.72;100.00
63808;BME280;49961;43.970;22.868;2022-09-09T05:24:06;101405.50;;;20.61;100.00
63808;BME280;49961;43.970;22.868;2022-09-09T05:25:07;101398.22;;;20.54;100.00
63808;BME280;49961;43.970;22.868;2022-09-09T05:26:12;101444.00;;;20.78;100.00
63808;BME280;49961;43.970;22.868;2022-09-09T05:27:13;101446.47;;;20.85;100.00
63808;BME280;49961;43.970;22.868;2022-09-09T05:28:14;101449.19;;;20.94;100.00
63808;BME280;49961;43.970;22.868;2022-09-09T05:29:14;101449.59;;;21.02;100.00
63808;BME280;49961;43.970;22.868;2022-09-09T05:30:17;101446.88;;;21.07;100.00
63808;BME280;49961;43.970;22.868;2022-09-09T05:31:19;101404.91;;;20.95;100.00
63808;BME280;49961;43.970;22.868;2022-09-09T05:32:19;101417.44;;;21.08;100.00
63808;BME280;49961;43.970;22.868;2022-09-09T05:33:20;101442.03;;;21.22;100.00
63808;BME280;49961;43.970;22.868;2022-09-09T05:34:21;101416.09;;;21.18;100.00
63808;BME280;49961;43.970;22.868;2022-09-09T05:35:21;101427.66;;;21.35;100.00
63808;BME280;49961;43.970;22.868;2022-09-09T05:36:23;101422.41;;;21.42;100.00
63808;BME280;49961;43.970;22.868;2022-09-09T05:37:23;101360.00;;;21.06;100.00
63808;BME280;49961;43.970;22.868;2022-09-09T05:38:24;101375.19;;;21.23;100.00
63808;BME280;49961;43.970;22.868;2022-09-09T05:39:25;101412.44;;;21.61;100.00
63808;BME280;49961;43.970;22.868;2022-09-09T05:40:25;101406.13;;;21.66;100.00
63808;BME280;49961;43.970;22.868;2022-09-09T05:41:26;101400.56;;;21.72;100.00
63808;BME280;49961;43.970;22.868;2022-09-09T05:42:31;101394.66;;;21.70;100.00
63808;BME280;49961;43.970;22.868;2022-09-09T05:43:32;101397.28;;;21.73;100.00
63808;BME280;49961;43.970;22.868;2022-09-09T05:44:33;101399.13;;;21.76;100.00
63808;BME280;49961;43.970;22.868;2022-09-09T05:45:33;101363.81;;;21.52;100.00
63808;BME280;49961;43.970;22.868;2022-09-09T05:46:34;101393.81;;;21.84;100.00
63808;BME280;49961;43.970;22.868;2022-09-09T05:47:35;101401.09;;;21.90;100.00
63808;BME280;49961;43.970;22.868;2022-09-09T05:48:42;101396.88;;;22.00;100.00
63808;BME280;49961;43.970;22.868;2022-09-09T05:49:43;101401.56;;;22.03;100.00
63808;BME280;49961;43.970;22.868;2022-09-09T05:50:52;101350.16;;;21.79;100.00
63808;BME280;49961;43.970;22.868;2022-09-09T05:51:53;101389.47;;;22.23;100.00
63808;BME280;49961;43.970;22.868;2022-09-09T05:52:54;101386.22;;;22.30;100.00
63808;BME280;49961;43.970;22.868;2022-09-09T05:53:54;101386.56;;;22.37;100.00
63808;BME280;49961;43.970;22.868;2022-09-09T05:54:58;101258.88;;;21.62;100.00
63808;BME280;49961;43.970;22.868;2022-09-09T05:57:04;101382.66;;;22.49;100.00
63808;BME280;49961;43.970;22.868;2022-09-09T05:58:06;101384.75;;;22.54;100.00
63808;BME280;49961;43.970;22.868;2022-09-09T05:59:06;101389.69;;;22.59;100.00
63808;BME280;49961;43.970;22.868;2022-09-09T06:00:07;101383.03;;;22.62;100.00
63808;BME280;49961;43.970;22.868;2022-09-09T06:01:16;101380.00;;;22.66;100.00